Time;durP1;ratioP1;P1;durP2;ratioP2;P2;SDS_P1;SDS_P2;PMS_P1;PMS_P2;Temp;Humidity;BMP_temperature;BMP_pressure;BME280_temperature;BME280_humidity;BME280_pressure;Samples;Min_cycle;Max_cycle;Signal;HPM_P1;HPM_P2
2021/12/25 00:01:41;;;;;;;;;;;2.60;85.30;;;;;;5005899;28;87179;-46
2021/12/25 00:04:07;;;;;;;;;;;2.60;85.20;;;;;;5005953;28;89169;-46
2021/12/25 00:06:34;;;;;;;;;;;2.60;85.20;;;;;;5004870;28;90648;-46
2021/12/25 00:08:59;;;;;;;;;;;2.60;85.20;;;;;;5005887;28;87034;-45
2021/12/25 00:11:25;;;;;;;;;;;2.60;85.30;;;;;;5005601;28;88778;-45
2021/12/25 00:13:50;;;;;;;;;;;2.60;85.30;;;;;;5008485;28;88191;-45
2021/12/25 00:16:16;;;;;;;;;;;2.60;85.30;;;;;;5005166;28;88704;-46
2021/12/25 00:18:41;;;;;;;;;;;2.60;85.30;;;;;;5005516;28;90116;-46
2021/12/25 00:21:08;;;;;;;;;;;2.60;85.30;;;;;;5005929;28;87103;-46
2021/12/25 00:23:33;;;;;;;;;;;2.60;85.10;;;;;;5006068;28;88682;-46
2021/12/25 00:26:11;;;;;;;;;;;2.60;85.20;;;;;;5004933;28;89244;-46
2021/12/25 00:28:52;;;;;;;;;;;2.60;85.10;;;;;;5005716;28;87083;-46
2021/12/25 00:36:14;;;;;;;;;;;2.60;85.20;;;;;;5008690;28;87227;-45
2021/12/25 00:38:42;;;;;;;;;;;2.60;85.10;;;;;;5005289;28;89857;-45
2021/12/25 00:41:07;;;;;;;;;;;2.60;85.20;;;;;;5005566;28;87151;-46
2021/12/25 00:43:33;;;;;;;;;;;2.60;85.20;;;;;;5005451;28;87949;-46
2021/12/25 00:45:59;;;;;;;;;;;2.60;85.10;;;;;;5004845;28;89833;-46
2021/12/25 00:48:24;;;;;;;;;;;2.60;85.10;;;;;;5005763;28;86417;-45
2021/12/25 00:50:50;;;;;;;;;;;2.70;85.20;;;;;;5005204;28;88846;-46
2021/12/25 00:53:15;;;;;;;;;;;2.70;85.10;;;;;;5005307;28;87223;-46
2021/12/25 00:55:41;;;;;;;;;;;2.70;85.20;;;;;;5004621;28;88103;-48
2021/12/25 00:58:06;;;;;;;;;;;2.60;85.10;;;;;;5007745;28;90071;-46
2021/12/25 01:00:32;;;;;;;;;;;2.60;85.10;;;;;;5004988;28;86876;-46
2021/12/25 01:02:57;;;;;;;;;;;2.70;85.10;;;;;;5005182;28;88354;-46
2021/12/25 01:05:23;;;;;;;;;;;2.60;85.10;;;;;;5004563;28;89492;-46
2021/12/25 01:07:49;;;;;;;;;;;2.70;85.20;;;;;;5004847;28;87150;-45
2021/12/25 01:10:17;;;;;;;;;;;2.70;85.10;;;;;;5004867;28;88906;-46
2021/12/25 01:16:55;;;;;;;;;;;2.70;85.20;;;;;;5002700;28;88018;-46
2021/12/25 01:31:17;;;;;;;;;;;2.70;85.00;;;;;;5002365;28;86830;-45
2021/12/25 01:38:54;;;;;;;;;;;2.70;84.90;;;;;;5004625;28;87280;-46
2021/12/25 01:49:42;;;;;;;;;;;2.70;84.80;;;;;;5004359;28;86956;-46
2021/12/25 01:52:08;;;;;;;;;;;2.70;84.80;;;;;;5004601;28;89085;-46
2021/12/25 01:54:33;;;;;;;;;;;2.70;84.80;;;;;;5003798;28;89631;-46
2021/12/25 01:56:59;;;;;;;;;;;2.70;84.80;;;;;;5004115;28;86959;-46
2021/12/25 01:59:25;;;;;;;;;;;2.70;84.80;;;;;;5004405;28;87219;-46
2021/12/25 02:01:51;;;;;;;;;;;2.70;84.80;;;;;;5003667;28;89845;-46
2021/12/25 02:04:16;;;;;;;;;;;2.70;84.80;;;;;;5007597;28;86447;-46
2021/12/25 02:06:43;;;;;;;;;;;2.70;84.80;;;;;;5003718;28;89589;-46
2021/12/25 02:09:09;;;;;;;;;;;2.70;84.90;;;;;;5003906;28;87142;-45
2021/12/25 02:11:34;;;;;;;;;;;2.70;84.90;;;;;;5003547;28;88987;-46
2021/12/25 02:14:00;;;;;;;;;;;2.70;84.90;;;;;;5003354;28;88399;-45
2021/12/25 02:16:30;;;;;;;;;;;2.70;85.00;;;;;;5003687;28;87133;-45
2021/12/25 02:21:42;;;;;;;;;;;2.70;85.00;;;;;;5003774;28;87068;-46
2021/12/25 02:24:11;;;;;;;;;;;2.70;85.10;;;;;;5003699;28;87076;-46
2021/12/25 02:26:38;;;;;;;;;;;2.70;85.00;;;;;;5006265;28;89082;-46
2021/12/25 02:29:04;;;;;;;;;;;2.70;85.10;;;;;;5004241;28;86001;-46
2021/12/25 02:31:29;;;;;;;;;;;2.70;85.10;;;;;;5003886;28;87094;-45
2021/12/25 02:33:55;;;;;;;;;;;2.70;85.10;;;;;;5003250;28;89593;-46
2021/12/25 02:36:20;;;;;;;;;;;2.70;85.10;;;;;;5002923;28;88146;-46
2021/12/25 02:38:46;;;;;;;;;;;2.70;85.20;;;;;;5003543;28;89657;-46
2021/12/25 02:41:12;;;;;;;;;;;2.70;85.10;;;;;;5003281;28;89954;-46
2021/12/25 02:43:38;;;;;;;;;;;2.70;85.30;;;;;;5003551;28;87125;-45
2021/12/25 02:46:04;;;;;;;;;;;2.70;85.20;;;;;;5003342;28;88907;-45
2021/12/25 02:48:31;;;;;;;;;;;2.70;85.20;;;;;;5005543;28;87215;-46
2021/12/25 02:50:57;;;;;;;;;;;2.70;85.20;;;;;;5003358;28;88906;-46
2021/12/25 02:53:22;;;;;;;;;;;2.70;85.20;;;;;;5003541;28;88786;-45
2021/12/25 02:55:48;;;;;;;;;;;2.70;85.10;;;;;;5003449;28;87142;-46
2021/12/25 02:58:13;;;;;;;;;;;2.70;85.20;;;;;;5003328;28;88785;-46
2021/12/25 03:00:44;;;;;;;;;;;2.70;85.10;;;;;;5002238;28;90373;-46
2021/12/25 03:03:09;;;;;;;;;;;2.70;85.00;;;;;;5003027;28;87102;-45
2021/12/25 03:05:35;;;;;;;;;;;2.70;85.10;;;;;;5003242;28;89011;-45
2021/12/25 03:08:02;;;;;;;;;;;2.70;85.10;;;;;;5003105;28;88144;-46
2021/12/25 03:10:30;;;;;;;;;;;2.80;85.00;;;;;;5006187;28;87114;-46
2021/12/25 03:13:56;;;;;;;;;;;2.70;85.00;;;;;;5002774;28;89508;-46
2021/12/25 03:15:51;;;;;;;;;;;2.70;85.10;;;;;;5001301;28;87188;-46
2021/12/25 03:18:21;;;;;;;;;;;2.70;85.00;;;;;;5003697;28;89116;-45
2021/12/25 03:20:48;;;;;;;;;;;2.70;84.90;;;;;;5002872;28;88063;-45
2021/12/25 03:23:16;;;;;;;;;;;2.80;85.00;;;;;;5002942;28;87120;-46
2021/12/25 03:25:42;;;;;;;;;;;2.70;85.10;;;;;;5002218;28;88797;-46
2021/12/25 03:28:07;;;;;;;;;;;2.70;85.10;;;;;;5002833;28;89305;-46
2021/12/25 03:30:37;;;;;;;;;;;2.70;85.10;;;;;;5003429;28;87142;-47
2021/12/25 03:33:06;;;;;;;;;;;2.70;85.10;;;;;;5005501;28;89050;-45
2021/12/25 03:35:34;;;;;;;;;;;2.70;85.00;;;;;;5002944;28;87157;-46
2021/12/25 03:38:07;;;;;;;;;;;2.70;85.00;;;;;;5002852;28;89272;-46
2021/12/25 03:40:32;;;;;;;;;;;2.70;85.00;;;;;;5002517;28;89400;-46
2021/12/25 03:42:58;;;;;;;;;;;2.80;85.20;;;;;;5003465;28;86279;-46
2021/12/25 03:45:24;;;;;;;;;;;2.80;85.10;;;;;;5002781;28;87237;-46
2021/12/25 03:48:01;;;;;;;;;;;2.80;85.10;;;;;;5002553;28;89522;-46
2021/12/25 03:53:24;;;;;;;;;;;2.80;85.10;;;;;;5005436;28;88359;-46
2021/12/25 03:58:34;;;;;;;;;;;2.80;85.00;;;;;;5003076;28;86812;-46
2021/12/25 04:01:13;;;;;;;;;;;2.80;84.90;;;;;;5004458;28;88217;-45
2021/12/25 04:03:46;;;;;;;;;;;2.70;84.80;;;;;;5005856;28;87073;-46
2021/12/25 04:06:12;;;;;;;;;;;2.70;85.10;;;;;;5006083;28;88862;-46
2021/12/25 04:08:46;;;;;;;;;;;2.80;85.00;;;;;;5006143;28;88458;-46
2021/12/25 04:11:24;;;;;;;;;;;2.80;85.00;;;;;;5005967;28;86986;-46
2021/12/25 04:13:49;;;;;;;;;;;2.80;84.90;;;;;;5005857;28;89035;-46
2021/12/25 04:16:15;;;;;;;;;;;2.80;84.90;;;;;;5007420;28;90035;-46
2021/12/25 04:18:40;;;;;;;;;;;2.80;84.90;;;;;;5005701;28;89998;-46
2021/12/25 04:21:06;;;;;;;;;;;2.80;85.00;;;;;;5005323;28;89651;-46
2021/12/25 04:23:32;;;;;;;;;;;2.80;85.00;;;;;;5005878;28;87097;-45
2021/12/25 04:25:59;;;;;;;;;;;2.80;85.00;;;;;;5005725;28;88558;-46
2021/12/25 05:06:07;;;;;;;;;;;2.80;85.10;;;;;;5005270;28;86964;-46
2021/12/25 05:08:33;;;;;;;;;;;2.80;85.00;;;;;;5004651;28;87817;-46
2021/12/25 05:10:58;;;;;;;;;;;2.80;85.10;;;;;;5004632;28;87288;-46
2021/12/25 05:13:24;;;;;;;;;;;2.80;85.00;;;;;;5003851;28;87219;-45
2021/12/25 05:15:50;;;;;;;;;;;2.80;85.00;;;;;;5004511;28;88913;-46
2021/12/25 05:18:16;;;;;;;;;;;2.80;84.90;;;;;;5004441;28;88550;-46
2021/12/25 05:20:41;;;;;;;;;;;2.80;84.90;;;;;;5004561;28;87103;-46
2021/12/25 05:23:07;;;;;;;;;;;2.80;84.80;;;;;;5004613;28;88795;-46
2021/12/25 05:25:33;;;;;;;;;;;2.80;84.90;;;;;;5007860;28;87870;-46
2021/12/25 05:28:00;;;;;;;;;;;2.80;84.90;;;;;;5004825;28;88181;-45
2021/12/25 05:30:26;;;;;;;;;;;2.80;84.90;;;;;;5004391;28;89743;-47
2021/12/25 05:32:52;;;;;;;;;;;2.80;84.90;;;;;;5004054;28;88041;-47
2021/12/25 05:35:17;;;;;;;;;;;2.80;84.90;;;;;;5004391;28;89850;-46
2021/12/25 05:37:43;;;;;;;;;;;2.80;84.80;;;;;;5004429;28;88013;-46
2021/12/25 05:40:09;;;;;;;;;;;2.80;84.90;;;;;;5004390;28;87082;-47
2021/12/25 05:42:34;;;;;;;;;;;2.80;84.80;;;;;;5004791;28;87629;-46
2021/12/25 05:45:00;;;;;;;;;;;2.80;84.80;;;;;;5003936;28;89529;-46
2021/12/25 05:47:27;;;;;;;;;;;2.80;84.70;;;;;;5007329;28;87146;-46
2021/12/25 05:49:52;;;;;;;;;;;2.80;84.80;;;;;;5004343;28;88817;-46
2021/12/25 05:52:18;;;;;;;;;;;2.80;84.80;;;;;;5004586;28;87042;-46
2021/12/25 05:54:43;;;;;;;;;;;2.80;84.80;;;;;;5004230;28;89289;-46
2021/12/25 05:57:09;;;;;;;;;;;2.90;84.90;;;;;;5003434;28;88941;-46
2021/12/25 05:59:34;;;;;;;;;;;2.80;84.70;;;;;;5004395;28;87119;-47
2021/12/25 06:02:00;;;;;;;;;;;2.80;84.80;;;;;;5004109;28;88656;-46
2021/12/25 06:04:25;;;;;;;;;;;2.90;84.90;;;;;;5003690;28;88755;-46
2021/12/25 06:06:51;;;;;;;;;;;2.90;84.90;;;;;;5006946;28;87153;-46
2021/12/25 06:09:18;;;;;;;;;;;2.90;85.00;;;;;;5003917;28;88157;-46
2021/12/25 06:11:45;;;;;;;;;;;2.90;85.00;;;;;;5004317;28;87463;-46
2021/12/25 06:14:17;;;;;;;;;;;2.80;84.90;;;;;;5004474;28;89076;-46
2021/12/25 06:16:43;;;;;;;;;;;2.90;84.90;;;;;;5003885;28;88395;-47
2021/12/25 06:19:09;;;;;;;;;;;2.90;84.80;;;;;;5003653;28;87085;-46
2021/12/25 06:21:34;;;;;;;;;;;2.90;84.80;;;;;;5003437;28;89503;-46
2021/12/25 06:24:02;;;;;;;;;;;2.90;84.80;;;;;;5003288;28;88412;-47
2021/12/25 06:26:27;;;;;;;;;;;2.90;84.70;;;;;;5003883;28;87104;-46
2021/12/25 06:28:53;;;;;;;;;;;2.90;84.80;;;;;;5006531;28;87739;-46
2021/12/25 06:31:19;;;;;;;;;;;2.90;84.80;;;;;;5003598;28;87065;-46
2021/12/25 06:33:44;;;;;;;;;;;2.90;84.90;;;;;;5003755;28;87178;-46
2021/12/25 06:36:10;;;;;;;;;;;2.90;84.80;;;;;;5003313;28;89760;-46
2021/12/25 06:38:38;;;;;;;;;;;2.90;84.90;;;;;;5004098;28;86398;-46
2021/12/25 06:41:04;;;;;;;;;;;2.90;84.80;;;;;;5003682;28;88307;-47
2021/12/25 06:43:29;;;;;;;;;;;2.90;84.80;;;;;;5003192;28;90131;-47
2021/12/25 06:45:55;;;;;;;;;;;2.90;84.70;;;;;;5002802;28;88064;-46
2021/12/25 06:48:21;;;;;;;;;;;2.90;84.80;;;;;;5003459;28;90344;-46
2021/12/25 06:50:47;;;;;;;;;;;2.90;84.80;;;;;;5006265;28;89875;-46
2021/12/25 06:53:12;;;;;;;;;;;2.90;84.80;;;;;;5003436;28;89156;-46
2021/12/25 06:55:38;;;;;;;;;;;2.90;84.90;;;;;;5003137;28;89670;-46
2021/12/25 06:58:04;;;;;;;;;;;2.90;85.40;;;;;;5003529;28;87304;-47
2021/12/25 07:00:30;;;;;;;;;;;2.90;84.80;;;;;;5003413;28;87979;-47
2021/12/25 07:02:57;;;;;;;;;;;2.90;84.80;;;;;;5003630;28;87478;-46
2021/12/25 07:05:23;;;;;;;;;;;2.90;84.80;;;;;;5003174;28;87205;-46
2021/12/25 07:07:49;;;;;;;;;;;2.90;84.80;;;;;;5003508;28;87449;-46
2021/12/25 07:10:15;;;;;;;;;;;3.00;84.80;;;;;;5002061;28;90284;-46
2021/12/25 07:12:44;;;;;;;;;;;3.00;84.80;;;;;;5006365;28;87063;-46
2021/12/25 07:15:10;;;;;;;;;;;3.00;84.80;;;;;;5001035;28;91024;-46
2021/12/25 07:17:35;;;;;;;;;;;3.00;84.80;;;;;;5003069;28;87014;-46
2021/12/25 07:20:01;;;;;;;;;;;3.00;84.80;;;;;;5002902;28;88863;-46
2021/12/25 07:22:27;;;;;;;;;;;3.00;84.70;;;;;;5002671;28;89802;-47
2021/12/25 07:24:52;;;;;;;;;;;3.00;85.30;;;;;;5002991;28;87039;-46
2021/12/25 07:27:18;;;;;;;;;;;3.00;84.60;;;;;;5003620;28;89182;-46
2021/12/25 07:29:43;;;;;;;;;;;3.00;84.60;;;;;;5002785;28;89537;-46
2021/12/25 07:32:09;;;;;;;;;;;3.00;84.50;;;;;;5003004;28;87166;-47
2021/12/25 07:34:36;;;;;;;;;;;3.00;84.50;;;;;;5004651;28;87914;-46
2021/12/25 07:37:02;;;;;;;;;;;3.00;84.60;;;;;;5006461;28;87177;-46
2021/12/25 07:39:27;;;;;;;;;;;3.00;84.70;;;;;;5006471;28;89050;-46
2021/12/25 07:41:53;;;;;;;;;;;3.00;84.80;;;;;;5006085;28;89488;-46
2021/12/25 07:44:19;;;;;;;;;;;3.00;84.80;;;;;;5006490;28;87105;-47
2021/12/25 07:46:45;;;;;;;;;;;3.00;84.80;;;;;;5006283;28;89049;-46
2021/12/25 07:49:16;;;;;;;;;;;3.00;84.80;;;;;;5005594;28;89693;-46
2021/12/25 07:51:42;;;;;;;;;;;3.00;84.80;;;;;;5006677;28;86283;-46
2021/12/25 07:54:09;;;;;;;;;;;3.10;84.90;;;;;;5006373;28;88261;-46
2021/12/25 07:56:34;;;;;;;;;;;3.00;84.90;;;;;;5008633;28;89470;-46
2021/12/25 07:59:00;;;;;;;;;;;3.10;84.90;;;;;;5005585;28;88989;-46
2021/12/25 08:01:26;;;;;;;;;;;3.10;84.80;;;;;;5005791;28;89275;-46
2021/12/25 08:03:51;;;;;;;;;;;3.10;84.80;;;;;;5006063;28;86953;-46
2021/12/25 08:06:17;;;;;;;;;;;3.10;84.70;;;;;;5006021;28;88834;-46
2021/12/25 08:08:43;;;;;;;;;;;3.10;84.70;;;;;;5005582;28;89220;-45
2021/12/25 08:11:09;;;;;;;;;;;3.10;84.50;;;;;;5005911;28;87110;-46
2021/12/25 08:13:34;;;;;;;;;;;3.10;84.50;;;;;;5005851;28;88597;-47
2021/12/25 08:16:00;;;;;;;;;;;3.10;84.50;;;;;;5008467;28;88181;-46
2021/12/25 08:18:25;;;;;;;;;;;3.10;84.40;;;;;;5005763;28;86851;-46
2021/12/25 08:20:51;;;;;;;;;;;3.10;84.50;;;;;;5005326;28;89804;-46
2021/12/25 08:23:16;;;;;;;;;;;3.20;84.60;;;;;;5005060;28;88153;-46
2021/12/25 08:25:42;;;;;;;;;;;3.20;84.50;;;;;;5005738;28;89726;-46
2021/12/25 08:28:09;;;;;;;;;;;3.20;84.50;;;;;;5005437;28;88252;-46
2021/12/25 08:30:35;;;;;;;;;;;3.20;84.40;;;;;;5005731;28;87222;-47
2021/12/25 08:33:01;;;;;;;;;;;3.20;84.50;;;;;;5005481;28;87427;-46
2021/12/25 08:35:28;;;;;;;;;;;3.20;84.50;;;;;;5005408;28;88787;-46
2021/12/25 08:37:54;;;;;;;;;;;3.20;84.50;;;;;;5008300;28;87011;-46
2021/12/25 08:40:19;;;;;;;;;;;3.20;84.50;;;;;;5005698;28;88609;-46
2021/12/25 08:42:48;;;;;;;;;;;3.30;84.70;;;;;;5005235;28;86778;-46
2021/12/25 08:45:40;;;;;;;;;;;3.20;84.70;;;;;;5005301;28;89114;-46
2021/12/25 08:48:08;;;;;;;;;;;3.20;85.20;;;;;;5004372;28;90199;-46
2021/12/25 08:50:34;;;;;;;;;;;3.20;84.60;;;;;;5005429;28;87170;-46
2021/12/25 08:52:59;;;;;;;;;;;3.20;84.60;;;;;;5005280;28;88988;-46
2021/12/25 08:55:25;;;;;;;;;;;3.30;84.80;;;;;;5004769;28;89597;-47
2021/12/25 08:57:51;;;;;;;;;;;3.30;84.80;;;;;;5005204;28;87114;-47
2021/12/25 09:00:17;;;;;;;;;;;3.30;84.90;;;;;;5007819;28;87012;-47
2021/12/25 09:02:43;;;;;;;;;;;3.30;85.00;;;;;;5004865;28;87136;-45
2021/12/25 09:05:09;;;;;;;;;;;3.30;85.00;;;;;;5005491;28;88173;-46
2021/12/25 09:07:34;;;;;;;;;;;3.30;84.90;;;;;;5004539;28;89527;-46
2021/12/25 09:10:00;;;;;;;;;;;3.30;85.10;;;;;;5004993;28;87229;-46
2021/12/25 09:12:28;;;;;;;;;;;3.30;85.10;;;;;;5004458;28;89124;-46
2021/12/25 09:14:53;;;;;;;;;;;3.30;85.00;;;;;;5004036;28;89305;-46
2021/12/25 09:17:19;;;;;;;;;;;3.30;85.10;;;;;;5004924;28;87183;-46
2021/12/25 09:19:44;;;;;;;;;;;3.30;85.20;;;;;;5004981;28;87981;-46
2021/12/25 09:22:11;;;;;;;;;;;3.30;85.20;;;;;;5007522;28;88094;-46
2021/12/25 09:24:37;;;;;;;;;;;3.30;85.40;;;;;;5004663;28;88977;-47
2021/12/25 09:27:03;;;;;;;;;;;3.30;85.30;;;;;;5004296;28;90145;-46
2021/12/25 09:29:29;;;;;;;;;;;3.40;85.40;;;;;;5004978;28;86421;-46
2021/12/25 09:31:54;;;;;;;;;;;3.40;85.60;;;;;;5004735;28;88114;-46
2021/12/25 09:34:20;;;;;;;;;;;3.40;85.70;;;;;;5004277;28;89664;-46
2021/12/25 09:36:46;;;;;;;;;;;3.40;85.80;;;;;;5004132;28;87948;-45
2021/12/25 09:39:11;;;;;;;;;;;3.40;85.60;;;;;;5004587;28;89978;-46
2021/12/25 09:41:37;;;;;;;;;;;3.40;85.80;;;;;;5004075;28;89334;-45
2021/12/25 09:44:04;;;;;;;;;;;3.40;85.90;;;;;;5007090;28;86909;-46
2021/12/25 09:46:29;;;;;;;;;;;3.40;86.00;;;;;;5003964;28;90838;-46
2021/12/25 09:48:55;;;;;;;;;;;3.40;86.20;;;;;;5004416;28;87054;-46
2021/12/25 09:51:21;;;;;;;;;;;3.40;86.40;;;;;;5004428;28;88884;-46
2021/12/25 09:54:00;;;;;;;;;;;3.40;86.50;;;;;;5004621;28;88612;-45
2021/12/25 09:56:26;;;;;;;;;;;3.40;86.60;;;;;;5004276;28;87125;-45
2021/12/25 09:58:52;;;;;;;;;;;3.40;86.40;;;;;;5003645;28;87314;-46
2021/12/25 10:01:36;;;;;;;;;;;3.50;86.60;;;;;;5003316;28;90398;-46
2021/12/25 10:04:02;;;;;;;;;;;3.50;86.50;;;;;;5004187;28;87157;-46
2021/12/25 10:06:29;;;;;;;;;;;3.50;86.70;;;;;;5006789;28;88973;-45
2021/12/25 10:08:54;;;;;;;;;;;3.50;86.80;;;;;;5004027;28;87084;-46
2021/12/25 10:11:20;;;;;;;;;;;3.50;86.80;;;;;;5003728;28;89227;-46
2021/12/25 10:13:46;;;;;;;;;;;3.50;86.80;;;;;;5003562;28;89527;-45
2021/12/25 10:16:17;;;;;;;;;;;3.50;86.90;;;;;;5003327;28;87217;-46
2021/12/25 10:18:43;;;;;;;;;;;3.50;86.90;;;;;;5004350;28;88733;-46
2021/12/25 10:21:28;;;;;;;;;;;3.50;87.20;;;;;;5003502;28;88612;-45
2021/12/25 10:24:16;;;;;;;;;;;3.50;87.10;;;;;;5003364;28;87190;-46
2021/12/25 10:26:44;;;;;;;;;;;3.50;87.00;;;;;;5006189;28;87812;-45
2021/12/25 10:29:19;;;;;;;;;;;3.50;87.10;;;;;;5003924;28;86865;-46
2021/12/25 10:31:44;;;;;;;;;;;3.60;87.40;;;;;;5003629;28;88895;-46
2021/12/25 10:34:15;;;;;;;;;;;3.60;87.40;;;;;;5003301;28;89708;-46
2021/12/25 10:36:40;;;;;;;;;;;3.60;87.20;;;;;;5003901;28;86878;-45
2021/12/25 10:39:08;;;;;;;;;;;3.60;87.30;;;;;;5002373;28;91141;-46
2021/12/25 10:41:35;;;;;;;;;;;3.60;87.30;;;;;;5003237;28;89750;-45
2021/12/25 10:44:13;;;;;;;;;;;3.60;87.40;;;;;;5003791;28;86393;-45
2021/12/25 10:46:54;;;;;;;;;;;3.60;87.50;;;;;;5003532;28;88196;-45
2021/12/25 10:49:20;;;;;;;;;;;3.60;87.40;;;;;;5006035;28;89386;-45
2021/12/25 10:51:46;;;;;;;;;;;3.60;87.60;;;;;;5002968;28;88962;-45
2021/12/25 10:54:14;;;;;;;;;;;3.70;87.70;;;;;;5003061;28;89519;-45
2021/12/25 10:56:40;;;;;;;;;;;3.70;87.60;;;;;;5003321;28;87107;-46
2021/12/25 10:59:10;;;;;;;;;;;3.70;87.70;;;;;;5003497;28;88954;-45
2021/12/25 11:01:41;;;;;;;;;;;3.70;87.70;;;;;;5002773;28;89368;-45
2021/12/25 11:04:26;;;;;;;;;;;3.70;87.70;;;;;;5003049;28;87127;-45
2021/12/25 11:06:51;;;;;;;;;;;3.70;87.70;;;;;;5003267;28;88665;-45
2021/12/25 11:09:17;;;;;;;;;;;3.70;87.70;;;;;;5003435;28;88636;-46
2021/12/25 11:11:42;;;;;;;;;;;3.70;87.80;;;;;;5009317;28;87158;-45
2021/12/25 11:14:12;;;;;;;;;;;3.70;87.70;;;;;;5006384;28;89575;-46
2021/12/25 11:16:39;;;;;;;;;;;3.70;87.90;;;;;;5005865;28;88002;-47
2021/12/25 11:19:10;;;;;;;;;;;3.80;87.80;;;;;;5006773;28;88283;-45
2021/12/25 11:21:36;;;;;;;;;;;3.80;87.90;;;;;;5006341;28;89380;-46
2021/12/25 11:24:12;;;;;;;;;;;3.80;87.90;;;;;;5006637;28;87147;-45
2021/12/25 11:26:38;;;;;;;;;;;3.80;88.10;;;;;;5005050;28;90660;-45
2021/12/25 11:29:04;;;;;;;;;;;3.80;88.10;;;;;;5006228;28;89304;-45
2021/12/25 11:31:31;;;;;;;;;;;3.80;88.10;;;;;;5006682;28;87006;-45
2021/12/25 11:33:57;;;;;;;;;;;3.80;88.20;;;;;;5009478;28;88666;-46
2021/12/25 11:36:23;;;;;;;;;;;3.80;88.10;;;;;;5006764;28;87122;-45
2021/12/25 11:38:49;;;;;;;;;;;3.80;88.00;;;;;;5006495;28;89610;-46
2021/12/25 11:41:15;;;;;;;;;;;3.80;88.10;;;;;;5005153;28;90447;-45
2021/12/25 11:43:43;;;;;;;;;;;3.90;88.10;;;;;;5006451;28;87176;-46
2021/12/25 11:46:09;;;;;;;;;;;3.90;88.10;;;;;;5006669;28;87867;-46
2021/12/25 11:48:36;;;;;;;;;;;3.90;88.20;;;;;;5005919;28;89275;-45
2021/12/25 11:51:03;;;;;;;;;;;3.90;88.20;;;;;;5006156;28;87223;-45
2021/12/25 11:58:51;;;;;;;;;;;3.90;88.20;;;;;;5004812;28;87166;-45
2021/12/25 12:01:22;;;;;;;;;;;3.90;88.30;;;;;;5005585;28;88359;-45
2021/12/25 12:03:54;;;;;;;;;;;4.00;88.40;;;;;;5005957;28;87147;-45
2021/12/25 12:06:20;;;;;;;;;;;4.00;88.40;;;;;;5005323;28;88099;-46
2021/12/25 12:08:52;;;;;;;;;;;4.00;88.40;;;;;;5004176;28;93064;-46
2021/12/25 12:11:21;;;;;;;;;;;4.00;88.40;;;;;;5006022;28;86870;-46
2021/12/25 12:13:47;;;;;;;;;;;4.00;88.40;;;;;;5006081;28;88913;-45
2021/12/25 12:16:13;;;;;;;;;;;4.00;88.50;;;;;;5004945;28;91546;-46
2021/12/25 12:18:39;;;;;;;;;;;4.00;88.40;;;;;;5008609;28;87101;-45
2021/12/25 12:21:17;;;;;;;;;;;4.00;88.50;;;;;;5005021;28;89426;-45
2021/12/25 12:24:09;;;;;;;;;;;4.10;88.50;;;;;;5005987;28;86330;-48
2021/12/25 12:26:44;;;;;;;;;;;4.10;88.50;;;;;;5005705;28;88290;-46
2021/12/25 12:29:10;;;;;;;;;;;4.10;88.70;;;;;;5005100;28;89744;-46
2021/12/25 12:31:35;;;;;;;;;;;4.00;88.50;;;;;;5005049;28;87989;-45
2021/12/25 12:34:01;;;;;;;;;;;4.10;88.50;;;;;;5005495;28;89196;-46
2021/12/25 12:36:27;;;;;;;;;;;4.10;88.60;;;;;;5005474;28;87607;-46
2021/12/25 12:39:10;;;;;;;;;;;4.10;88.70;;;;;;5008287;28;86863;-46
2021/12/25 12:41:42;;;;;;;;;;;4.10;88.70;;;;;;5005135;28;89095;-45
2021/12/25 12:44:10;;;;;;;;;;;4.10;88.70;;;;;;5005536;28;87078;-46
2021/12/25 12:46:48;;;;;;;;;;;4.10;88.80;;;;;;5005661;28;87296;-45
2021/12/25 12:49:16;;;;;;;;;;;4.10;88.70;;;;;;5005439;28;88773;-45
2021/12/25 12:51:42;;;;;;;;;;;4.10;88.80;;;;;;5005202;28;87143;-45
2021/12/25 12:54:07;;;;;;;;;;;4.20;88.80;;;;;;5005185;28;88916;-45
2021/12/25 12:56:33;;;;;;;;;;;4.20;88.80;;;;;;5003897;28;89662;-45
2021/12/25 12:58:59;;;;;;;;;;;4.20;88.80;;;;;;5005328;28;87127;-45
2021/12/25 13:01:25;;;;;;;;;;;4.20;88.80;;;;;;5007685;28;88009;-45
2021/12/25 13:03:58;;;;;;;;;;;4.20;88.80;;;;;;5005189;28;87041;-46
2021/12/25 13:06:27;;;;;;;;;;;4.20;88.90;;;;;;5005117;28;88249;-46
2021/12/25 13:08:53;;;;;;;;;;;4.20;88.80;;;;;;5004530;28;89551;-45
2021/12/25 13:11:30;;;;;;;;;;;4.20;88.80;;;;;;5004955;28;87162;-46
2021/12/25 13:14:02;;;;;;;;;;;4.20;88.90;;;;;;5005673;28;88047;-45
2021/12/25 13:16:38;;;;;;;;;;;4.30;88.90;;;;;;5004344;28;89235;-46
2021/12/25 13:19:05;;;;;;;;;;;4.20;88.80;;;;;;5004844;28;87094;-46
2021/12/25 13:21:32;;;;;;;;;;;4.30;89.00;;;;;;5004083;28;88919;-47
2021/12/25 13:23:59;;;;;;;;;;;4.30;89.00;;;;;;5007527;28;89786;-45
2021/12/25 13:26:26;;;;;;;;;;;4.30;89.00;;;;;;5005123;28;88834;-46
2021/12/25 13:28:52;;;;;;;;;;;4.30;89.10;;;;;;5004322;28;89902;-45
2021/12/25 13:31:19;;;;;;;;;;;4.30;89.00;;;;;;5004811;28;87308;-46
2021/12/25 13:33:59;;;;;;;;;;;4.30;89.00;;;;;;5003665;28;88818;-45
2021/12/25 13:36:30;;;;;;;;;;;4.30;89.10;;;;;;5004291;28;89283;-45
2021/12/25 13:39:01;;;;;;;;;;;4.30;89.10;;;;;;5005028;28;86393;-45
2021/12/25 13:41:26;;;;;;;;;;;4.30;89.10;;;;;;5004509;28;88063;-46
2021/12/25 13:44:03;;;;;;;;;;;4.40;89.20;;;;;;5004115;28;89403;-45
2021/12/25 13:46:57;;;;;;;;;;;4.40;89.20;;;;;;5005509;28;88034;-46
2021/12/25 13:49:29;;;;;;;;;;;4.40;89.20;;;;;;4998407;28;89902;-47
2021/12/25 13:51:55;;;;;;;;;;;4.40;89.30;;;;;;5004378;28;87066;-45
2021/12/25 13:54:21;;;;;;;;;;;4.40;89.20;;;;;;5004300;28;89079;-46
2021/12/25 13:56:47;;;;;;;;;;;4.30;89.20;;;;;;5004072;28;89499;-45
2021/12/25 13:59:12;;;;;;;;;;;4.40;89.20;;;;;;5003979;28;87104;-46
2021/12/25 14:01:38;;;;;;;;;;;4.40;89.20;;;;;;5004360;28;88743;-45
2021/12/25 14:04:11;;;;;;;;;;;4.40;89.20;;;;;;5004344;28;88042;-45
2021/12/25 14:06:37;;;;;;;;;;;4.40;89.30;;;;;;5004505;28;87065;-46
2021/12/25 14:09:06;;;;;;;;;;;4.40;89.20;;;;;;5006686;28;88462;-45
2021/12/25 14:11:33;;;;;;;;;;;4.40;89.20;;;;;;5003344;28;87804;-45
2021/12/25 14:14:04;;;;;;;;;;;4.40;89.20;;;;;;5003930;28;88807;-46
2021/12/25 14:16:29;;;;;;;;;;;4.40;89.20;;;;;;5003434;28;89527;-46
2021/12/25 14:18:55;;;;;;;;;;;4.40;89.20;;;;;;5004111;28;87040;-45
2021/12/25 14:21:21;;;;;;;;;;;4.40;89.20;;;;;;5004039;28;89074;-45
2021/12/25 14:23:59;;;;;;;;;;;4.40;89.20;;;;;;5003488;28;88311;-46
2021/12/25 14:26:25;;;;;;;;;;;4.50;89.30;;;;;;5003553;28;87158;-46
2021/12/25 14:28:50;;;;;;;;;;;4.40;89.30;;;;;;5006866;28;88845;-45
2021/12/25 14:31:16;;;;;;;;;;;4.50;89.30;;;;;;5003877;28;87210;-46
2021/12/25 14:33:52;;;;;;;;;;;4.50;89.40;;;;;;5003879;28;89046;-45
2021/12/25 14:36:18;;;;;;;;;;;4.50;89.30;;;;;;5002653;28;90970;-45
2021/12/25 14:38:44;;;;;;;;;;;4.50;89.20;;;;;;5003594;28;87139;-45
2021/12/25 14:41:10;;;;;;;;;;;4.50;89.20;;;;;;5003788;28;89320;-45
2021/12/25 14:43:37;;;;;;;;;;;4.50;89.20;;;;;;5003086;28;89699;-46
2021/12/25 14:46:03;;;;;;;;;;;4.50;89.10;;;;;;5003691;28;87131;-45
2021/12/25 14:48:34;;;;;;;;;;;4.50;89.10;;;;;;5003396;28;88654;-45
2021/12/25 14:51:01;;;;;;;;;;;4.50;89.10;;;;;;5006138;28;89417;-45
2021/12/25 14:53:27;;;;;;;;;;;4.50;89.00;;;;;;5003731;28;89040;-45
2021/12/25 14:55:56;;;;;;;;;;;4.50;89.00;;;;;;5003346;28;89443;-46
2021/12/25 14:58:23;;;;;;;;;;;4.50;88.90;;;;;;5003321;28;86940;-45
2021/12/25 15:00:51;;;;;;;;;;;4.50;88.90;;;;;;5002669;28;88558;-46
2021/12/25 15:03:19;;;;;;;;;;;4.50;88.90;;;;;;5002848;28;89735;-46
2021/12/25 15:05:49;;;;;;;;;;;4.60;89.10;;;;;;5003413;28;87202;-46
2021/12/25 15:08:18;;;;;;;;;;;4.60;88.90;;;;;;5003252;28;87833;-46
2021/12/25 15:10:44;;;;;;;;;;;4.60;88.90;;;;;;5002907;28;89411;-46
2021/12/25 15:13:19;;;;;;;;;;;4.60;88.80;;;;;;5004735;28;87058;-46
2021/12/25 15:15:48;;;;;;;;;;;4.60;88.70;;;;;;5002394;28;88601;-46
2021/12/25 15:18:27;;;;;;;;;;;4.60;88.70;;;;;;5003609;28;86365;-46
2021/12/25 15:21:12;;;;;;;;;;;4.60;88.60;;;;;;5003352;28;88367;-46
2021/12/25 15:23:38;;;;;;;;;;;4.60;88.50;;;;;;5002905;28;88054;-46
2021/12/25 15:26:15;;;;;;;;;;;4.60;88.50;;;;;;5002412;28;87871;-46
2021/12/25 15:28:42;;;;;;;;;;;4.60;88.70;;;;;;5003131;28;88487;-46
2021/12/25 15:31:14;;;;;;;;;;;4.60;89.00;;;;;;5002451;28;88773;-46
2021/12/25 15:33:47;;;;;;;;;;;4.60;89.00;;;;;;5002914;28;87097;-46
2021/12/25 15:36:14;;;;;;;;;;;4.60;89.10;;;;;;5005407;28;88657;-45
2021/12/25 15:38:40;;;;;;;;;;;4.60;89.20;;;;;;5002840;28;87119;-45
2021/12/25 15:41:06;;;;;;;;;;;4.60;89.10;;;;;;5003188;28;87318;-45
2021/12/25 15:43:32;;;;;;;;;;;4.60;89.10;;;;;;5002746;28;88041;-45
2021/12/25 15:46:01;;;;;;;;;;;4.60;89.10;;;;;;5002632;28;87147;-47
2021/12/25 15:48:27;;;;;;;;;;;4.60;89.00;;;;;;5002985;28;88773;-45
2021/12/25 15:50:53;;;;;;;;;;;4.60;88.90;;;;;;5002083;28;87714;-45
2021/12/25 15:53:19;;;;;;;;;;;4.60;88.80;;;;;;5002851;28;86932;-45
2021/12/25 15:55:45;;;;;;;;;;;4.60;88.80;;;;;;5002925;28;88998;-45
2021/12/25 15:58:13;;;;;;;;;;;4.60;88.70;;;;;;5008622;28;89648;-45
2021/12/25 16:00:41;;;;;;;;;;;4.60;88.80;;;;;;5006073;28;88950;-45